地図

経路データ

SID SEASON NUMBER BASIN SUBBASIN NAME ISO_TIME NATURE LAT LON WMO_WIND WMO_PRES WMO_AGENCY TRACK_TYPE DIST2LAND LANDFALL IFLAG USA_AGENCY USA_ATCF_ID USA_LAT USA_LON USA_RECORD USA_STATUS USA_WIND USA_PRES USA_SSHS USA_R34_NE USA_R34_SE USA_R34_SW USA_R34_NW USA_R50_NE USA_R50_SE USA_R50_SW USA_R50_NW USA_R64_NE USA_R64_SE USA_R64_SW USA_R64_NW USA_POCI USA_ROCI USA_RMW USA_EYE TOKYO_LAT TOKYO_LON TOKYO_GRADE TOKYO_WIND TOKYO_PRES TOKYO_R50_DIR TOKYO_R50_LONG TOKYO_R50_SHORT TOKYO_R30_DIR TOKYO_R30_LONG TOKYO_R30_SHORT TOKYO_LAND CMA_LAT CMA_LON CMA_CAT CMA_WIND CMA_PRES HKO_LAT HKO_LON HKO_CAT HKO_WIND HKO_PRES NEWDELHI_LAT NEWDELHI_LON NEWDELHI_GRADE NEWDELHI_WIND NEWDELHI_PRES NEWDELHI_CI NEWDELHI_DP NEWDELHI_POCI REUNION_LAT REUNION_LON REUNION_TYPE REUNION_WIND REUNION_PRES REUNION_TNUM REUNION_CI REUNION_RMW REUNION_R34_NE REUNION_R34_SE REUNION_R34_SW REUNION_R34_NW REUNION_R50_NE REUNION_R50_SE REUNION_R50_SW REUNION_R50_NW REUNION_R64_NE REUNION_R64_SE REUNION_R64_SW REUNION_R64_NW BOM_LAT BOM_LON BOM_TYPE BOM_WIND BOM_PRES BOM_TNUM BOM_CI BOM_RMW BOM_R34_NE BOM_R34_SE BOM_R34_SW BOM_R34_NW BOM_R50_NE BOM_R50_SE BOM_R50_SW BOM_R50_NW BOM_R64_NE BOM_R64_SE BOM_R64_SW BOM_R64_NW BOM_ROCI BOM_POCI BOM_EYE BOM_POS_METHOD BOM_PRES_METHOD NADI_LAT NADI_LON NADI_CAT NADI_WIND NADI_PRES WELLINGTON_LAT WELLINGTON_LON WELLINGTON_WIND WELLINGTON_PRES DS824_LAT DS824_LON DS824_STAGE DS824_WIND DS824_PRES TD9636_LAT TD9636_LON TD9636_STAGE TD9636_WIND TD9636_PRES TD9635_LAT TD9635_LON TD9635_WIND TD9635_PRES TD9635_ROCI NEUMANN_LAT NEUMANN_LON NEUMANN_CLASS NEUMANN_WIND NEUMANN_PRES MLC_LAT MLC_LON MLC_CLASS MLC_WIND MLC_PRES USA_GUST BOM_GUST BOM_GUST_PER REUNION_GUST REUNION_GUST_PER USA_SEAHGT USA_SEARAD_NE USA_SEARAD_SE USA_SEARAD_SW USA_SEARAD_NW STORM_SPEED STORM_DIR
1963272N09314 1963 93 NA NA FLORA 1963-09-28 12:00:00 TS 9.20000 -46.3000 30 hurdat_atl main 778 734 O_____________ hurdat_atl AL071963 9.20000 -46.3000 TD 30 -1 16 281
1963272N09314 1963 93 NA NA FLORA 1963-09-28 15:00:00 TS 9.36036 -47.0998 main 736 693 P_____________ AL071963 9.36036 -47.0998 TD 30 -1 16 281
1963272N09314 1963 93 NA NA FLORA 1963-09-28 18:00:00 TS 9.50000 -47.9000 30 hurdat_atl main 693 654 O_____________ hurdat_atl AL071963 9.50000 -47.9000 TD 30 -1 16 279
1963272N09314 1963 93 NA NA FLORA 1963-09-28 21:00:00 TS 9.60732 -48.7001 main 654 609 P_____________ AL071963 9.60732 -48.7001 TD 30 -1 16 277
1963272N09314 1963 93 NA NA FLORA 1963-09-29 00:00:00 TS 9.70000 -49.5000 30 hurdat_atl main 609 579 O_____________ hurdat_atl AL071963 9.70000 -49.5000 TD 30 -1 16 277
1963272N09314 1963 93 NA NA FLORA 1963-09-29 03:00:00 TS 9.80726 -50.2925 main 574 548 P_____________ AL071963 9.80726 -50.2925 TD 30 -1 16 277
1963272N09314 1963 93 NA NA FLORA 1963-09-29 06:00:00 TS 9.90000 -51.1000 30 hurdat_atl main 548 519 O_____________ hurdat_atl AL071963 9.90000 -51.1000 TD 30 -1 16 275
1963272N09314 1963 93 NA NA FLORA 1963-09-29 09:00:00 TS 9.95740 -51.9501 main 519 484 P_____________ AL071963 9.95740 -51.9501 TD 35 0 17 273
1963272N09314 1963 93 NA NA FLORA 1963-09-29 12:00:00 TS 10.0000 -52.8000 40 hurdat_atl main 484 464 O_____________ hurdat_atl AL071963 10.0000 -52.8000 TS 40 0 16 273
1963272N09314 1963 93 NA NA FLORA 1963-09-29 15:00:00 TS 10.0423 -53.6076 main 464 462 P_____________ AL071963 10.0423 -53.6076 TS 47 0 16 274
1963272N09314 1963 93 NA NA FLORA 1963-09-29 18:00:00 TS 10.1000 -54.4000 55 hurdat_atl main 470 470 O_____________ hurdat_atl AL071963 10.1000 -54.4000 TS 55 0 16 276
1963272N09314 1963 93 NA NA FLORA 1963-09-29 21:00:00 TS 10.1998 -55.1999 main 481 418 P_____________ AL071963 10.1998 -55.1999 TS 62 0 16 277
1963272N09314 1963 93 NA NA FLORA 1963-09-30 00:00:00 TS 10.3000 -56.0000 70 hurdat_atl main 418 353 O_____________ hurdat_atl AL071963 10.3000 -56.0000 HU 70 1 16 275
1963272N09314 1963 93 NA NA FLORA 1963-09-30 03:00:00 TS 10.3424 -56.8077 main 353 309 P_____________ AL071963 10.3424 -56.8077 HU 72 1 16 274
1963272N09314 1963 93 NA NA FLORA 1963-09-30 06:00:00 TS 10.4000 -57.6000 75 hurdat_atl main 309 284 O_____________ hurdat_atl AL071963 10.4000 -57.6000 HU 75 1 15 277
1963272N09314 1963 93 NA NA FLORA 1963-09-30 09:00:00 TS 10.5197 -58.3501 main 279 207 P_____________ AL071963 10.5197 -58.3501 HU 72 1 15 282
1963272N09314 1963 93 NA NA FLORA 1963-09-30 12:00:00 TS 10.7000 -59.1000 70 994 hurdat_atl main 207 122 O_____________ hurdat_atl AL071963 10.7000 -59.1000 HU 70 994 1 16 285
1963272N09314 1963 93 NA NA FLORA 1963-09-30 15:00:00 TS 10.9425 -59.9149 main 122 64 P_____________ AL071963 10.9425 -59.9149 HU 80 984 1 17 288
1963272N09314 1963 93 NA CS FLORA 1963-09-30 18:00:00 TS 11.2000 -60.7000 90 974 hurdat_atl main 64 57 O_____________ hurdat_atl AL071963 11.2000 -60.7000 L HU 90 974 2 15 288
1963272N09314 1963 93 NA CS FLORA 1963-09-30 21:00:00 TS 11.4072 -61.3727 main 78 78 P_____________ AL071963 11.4072 -61.3727 HU 90 974 2 13 287
1963272N09314 1963 93 NA CS FLORA 1963-10-01 00:00:00 TS 11.6000 -62.0000 90 975 hurdat_atl main 103 101 O_____________ hurdat_atl AL071963 11.6000 -62.0000 HU 90 975 2 13 287
1963272N09314 1963 93 NA CS FLORA 1963-10-01 03:00:00 TS 11.7923 -62.6427 main 123 123 P_____________ AL071963 11.7923 -62.6427 HU 90 2 13 287
1963272N09314 1963 93 NA CS FLORA 1963-10-01 06:00:00 TS 12.0000 -63.3000 90 hurdat_atl main 147 147 O_____________ hurdat_atl AL071963 12.0000 -63.3000 HU 90 2 14 289
1963272N09314 1963 93 NA CS FLORA 1963-10-01 09:00:00 TS 12.2424 -64.0000 main 179 179 P_____________ AL071963 12.2424 -64.0000 HU 90 2 15 290
1963272N09314 1963 93 NA CS FLORA 1963-10-01 12:00:00 TS 12.5000 -64.7000 90 hurdat_atl main 219 219 O_____________ hurdat_atl AL071963 12.5000 -64.7000 HU 90 2 14 291
1963272N09314 1963 93 NA CS FLORA 1963-10-01 15:00:00 TS 12.7423 -65.3577 main 244 244 P_____________ AL071963 12.7423 -65.3577 HU 92 2 14 292
1963272N09314 1963 93 NA CS FLORA 1963-10-01 18:00:00 TS 13.0000 -66.0000 95 967 hurdat_atl main 268 268 O_____________ hurdat_atl AL071963 13.0000 -66.0000 HU 95 967 2 14 293
1963272N09314 1963 93 NA CS FLORA 1963-10-01 21:00:00 TS 13.2925 -66.6725 main 299 288 P_____________ AL071963 13.2925 -66.6725 HU 97 964 3 14 295
1963272N09314 1963 93 NA CS FLORA 1963-10-02 00:00:00 TS 13.6000 -67.3000 100 hurdat_atl main 293 288 I_____________ hurdat_atl AL071963 13.6000 -67.3000 HU 100 961 3 13 299
1963272N09314 1963 93 NA CS FLORA 1963-10-02 03:00:00 TS 13.9073 -67.8301 main 300 289 P_____________ AL071963 13.9073 -67.8301 HU 102 958 3 11 302
1963272N09314 1963 93 NA CS FLORA 1963-10-02 06:00:00 TS 14.2000 -68.3000 105 956 hurdat_atl main 292 285 O_____________ hurdat_atl AL071963 14.2000 -68.3000 HU 105 956 3 11 302
1963272N09314 1963 93 NA CS FLORA 1963-10-02 09:00:00 TS 14.4649 -68.7651 main 293 289 P_____________ AL071963 14.4649 -68.7651 HU 105 956 3 10 300
1963272N09314 1963 93 NA CS FLORA 1963-10-02 12:00:00 TS 14.7000 -69.2000 105 hurdat_atl main 300 298 I_____________ hurdat_atl AL071963 14.7000 -69.2000 HU 105 956 3 9 298
1963272N09314 1963 93 NA CS FLORA 1963-10-02 15:00:00 TS 14.9074 -69.6151 main 315 314 P_____________ AL071963 14.9074 -69.6151 HU 105 956 3 9 297
1963272N09314 1963 93 NA CS FLORA 1963-10-02 18:00:00 TS 15.1000 -70.0000 105 957 hurdat_atl main 317 282 O_____________ hurdat_atl AL071963 15.1000 -70.0000 HU 105 957 3 8 299
1963272N09314 1963 93 NA CS FLORA 1963-10-02 21:00:00 TS 15.2999 -70.3576 main 278 246 P_____________ AL071963 15.2999 -70.3576 HU 107 3 8 301
1963272N09314 1963 93 NA CS FLORA 1963-10-03 00:00:00 TS 15.5000 -70.7000 110 hurdat_atl main 246 216 O_____________ hurdat_atl AL071963 15.5000 -70.7000 HU 110 3 8 300
1963272N09314 1963 93 NA CS FLORA 1963-10-03 03:00:00 TS 15.6850 -71.0576 main 215 190 P_____________ AL071963 15.6850 -71.0576 HU 115 4 8 301
1963272N09314 1963 93 NA CS FLORA 1963-10-03 06:00:00 TS 15.9000 -71.4000 120 hurdat_atl main 190 159 O_____________ hurdat_atl AL071963 15.9000 -71.4000 HU 120 4 8 308
1963272N09314 1963 93 NA CS FLORA 1963-10-03 09:00:00 TS 16.1775 -71.7150 main 159 138 P_____________ AL071963 16.1775 -71.7150 HU 122 4 8 316
1963272N09314 1963 93 NA CS FLORA 1963-10-03 12:00:00 TS 16.5000 -72.0000 125 hurdat_atl main 138 123 O_____________ hurdat_atl AL071963 16.5000 -72.0000 HU 125 4 8 321
1963272N09314 1963 93 NA CS FLORA 1963-10-03 15:00:00 TS 16.8275 -72.2651 main 130 105 P_____________ AL071963 16.8275 -72.2651 HU 127 4 9 326
1963272N09314 1963 93 NA CS FLORA 1963-10-03 18:00:00 TS 17.2000 -72.5000 130 933 hurdat_atl main 105 45 O_____________ hurdat_atl AL071963 17.2000 -72.5000 HU 130 933 4 9 335
1963272N09314 1963 93 NA CS FLORA 1963-10-03 21:00:00 TS 17.6784 -72.6791 main 45 10 P_____________ AL071963 17.6784 -72.6791 HU 130 4 10 337
1963272N09314 1963 93 NA CS FLORA 1963-10-04 00:00:00 TS 18.1000 -72.9000 130 hurdat_atl main 10 0 O_____________ hurdat_atl AL071963 18.1000 -72.9000 HU 130 4 9 330
1963272N09314 1963 93 NA CS FLORA 1963-10-04 01:00:00 TS 18.2000 -73.0000 130 hurdat_atl main 0 0 O_____________ hurdat_atl AL071963 18.2000 -73.0000 L HU 130 4 10 312
1963272N09314 1963 93 NA NA FLORA 1963-10-04 03:00:00 TS 18.4304 -73.2906 main 0 0 P_____________ AL071963 18.4304 -73.2906 HU 119 4 12 308
1963272N09314 1963 93 NA CS FLORA 1963-10-04 06:00:00 TS 18.8000 -73.8000 105 hurdat_atl main 30 30 O_____________ hurdat_atl AL071963 18.8000 -73.8000 HU 105 3 11 310
1963272N09314 1963 93 NA CS FLORA 1963-10-04 09:00:00 TS 19.1097 -74.1372 main 55 55 P_____________ AL071963 19.1097 -74.1372 HU 105 3 8 317
1963272N09314 1963 93 NA CS FLORA 1963-10-04 12:00:00 TS 19.4000 -74.4000 105 970 hurdat_atl main 78 39 O_____________ hurdat_atl AL071963 19.4000 -74.4000 HU 105 970 3 8 322
1963272N09314 1963 93 NA CS FLORA 1963-10-04 15:00:00 TS 19.6998 -74.6353 main 39 0 P_____________ AL071963 19.6998 -74.6353 HU 105 971 3 8 322
1963272N09314 1963 93 NA CS FLORA 1963-10-04 18:00:00 TS 20.0000 -74.9000 105 973 hurdat_atl main 0 0 O_____________ hurdat_atl AL071963 20.0000 -74.9000 L HU 105 973 3 9 316
1963272N09314 1963 93 NA NA FLORA 1963-10-04 21:00:00 TS 20.3376 -75.2847 main 0 0 P_____________ AL071963 20.3376 -75.2847 HU 102 3 10 309
1963272N09314 1963 93 NA NA FLORA 1963-10-05 00:00:00 TS 20.6000 -75.7000 100 hurdat_atl main 0 0 O_____________ hurdat_atl AL071963 20.6000 -75.7000 HU 100 3 8 296
1963272N09314 1963 93 NA NA FLORA 1963-10-05 03:00:00 TS 20.7100 -76.0952 main 0 0 P_____________ AL071963 20.7100 -76.0952 HU 92 2 7 279
1963272N09314 1963 93 NA NA FLORA 1963-10-05 06:00:00 TS 20.7000 -76.4000 85 hurdat_atl main 0 0 O_____________ hurdat_atl AL071963 20.7000 -76.4000 HU 85 2 4 258
1963272N09314 1963 93 NA NA FLORA 1963-10-05 09:00:00 TS 20.6224 -76.5451 main 0 0 P_____________ AL071963 20.6224 -76.5451 HU 80 1 3 223
1963272N09314 1963 93 NA NA FLORA 1963-10-05 12:00:00 TS 20.5000 -76.6000 75 hurdat_atl main 0 0 O_____________ hurdat_atl AL071963 20.5000 -76.6000 HU 75 1 3 199
1963272N09314 1963 93 NA NA FLORA 1963-10-05 15:00:00 TS 20.3775 -76.6350 main 0 0 P_____________ AL071963 20.3775 -76.6350 HU 72 1 2 207
1963272N09314 1963 93 NA NA FLORA 1963-10-05 18:00:00 TS 20.3000 -76.7000 70 hurdat_atl main 0 0 O_____________ hurdat_atl AL071963 20.3000 -76.7000 HU 70 1 2 259
1963272N09314 1963 93 NA NA FLORA 1963-10-05 21:00:00 TS 20.3350 -76.8699 main 0 0 P_____________ AL071963 20.3350 -76.8699 HU 72 1 4 285
1963272N09314 1963 93 NA CS FLORA 1963-10-06 00:00:00 TS 20.4000 -77.1000 75 hurdat_atl main 0 0 O_____________ hurdat_atl AL071963 20.4000 -77.1000 HU 75 1 5 279
1963272N09314 1963 93 NA CS FLORA 1963-10-06 03:00:00 TS 20.4076 -77.3650 main 22 22 P_____________ AL071963 20.4076 -77.3650 HU 80 1 5 270
1963272N09314 1963 93 NA CS FLORA 1963-10-06 06:00:00 TS 20.4000 -77.6000 85 hurdat_atl main 30 30 O_____________ hurdat_atl AL071963 20.4000 -77.6000 HU 85 2 3 267
1963272N09314 1963 93 NA CS FLORA 1963-10-06 09:00:00 TS 20.3924 -77.7225 main 33 33 P_____________ AL071963 20.3924 -77.7225 HU 85 2 2 270
1963272N09314 1963 93 NA CS FLORA 1963-10-06 12:00:00 TS 20.4000 -77.8000 85 hurdat_atl main 33 33 O_____________ hurdat_atl AL071963 20.4000 -77.8000 HU 85 2 2 284
1963272N09314 1963 93 NA CS FLORA 1963-10-06 15:00:00 TS 20.4350 -77.9075 main 33 22 P_____________ AL071963 20.4350 -77.9075 HU 85 2 2 299
1963272N09314 1963 93 NA CS FLORA 1963-10-06 18:00:00 TS 20.5000 -78.0000 85 hurdat_atl main 22 11 O_____________ hurdat_atl AL071963 20.5000 -78.0000 HU 85 2 2 317
1963272N09314 1963 93 NA CS FLORA 1963-10-06 21:00:00 TS 20.5925 -78.0650 main 15 10 P_____________ AL071963 20.5925 -78.0650 HU 85 2 2 333
1963272N09314 1963 93 NA CS FLORA 1963-10-07 00:00:00 TS 20.7000 -78.1000 85 hurdat_atl main 10 0 O_____________ hurdat_atl AL071963 20.7000 -78.1000 L HU 85 2 2 347
1963272N09314 1963 93 NA NA FLORA 1963-10-07 03:00:00 TS 20.8000 -78.1075 main 0 0 P_____________ AL071963 20.8000 -78.1075 HU 80 1 2 8
1963272N09314 1963 93 NA NA FLORA 1963-10-07 06:00:00 TS 20.9000 -78.1000 75 hurdat_atl main 0 0 O_____________ hurdat_atl AL071963 20.9000 -78.1000 HU 75 1 2 8
1963272N09314 1963 93 NA NA FLORA 1963-10-07 09:00:00 TS 21.0000 -78.1075 main 0 0 P_____________ AL071963 21.0000 -78.1075 HU 72 1 2 8
1963272N09314 1963 93 NA NA FLORA 1963-10-07 12:00:00 TS 21.1000 -78.1000 70 hurdat_atl main 0 0 O_____________ hurdat_atl AL071963 21.1000 -78.1000 HU 70 1 2 13
1963272N09314 1963 93 NA NA FLORA 1963-10-07 15:00:00 TS 21.2150 -78.0650 main 0 0 P_____________ AL071963 21.2150 -78.0650 HU 65 1 2 27
1963272N09314 1963 93 NA NA FLORA 1963-10-07 18:00:00 TS 21.3000 -78.0000 60 hurdat_atl main 0 0 O_____________ hurdat_atl AL071963 21.3000 -78.0000 TS 60 0 2 41
1963272N09314 1963 93 NA NA FLORA 1963-10-07 21:00:00 TS 21.3298 -77.9526 main 0 0 P_____________ AL071963 21.3298 -77.9526 TS 60 0 2 90
1963272N09314 1963 93 NA NA FLORA 1963-10-08 00:00:00 TS 21.3000 -77.8000 60 hurdat_atl main 0 0 O_____________ hurdat_atl AL071963 21.3000 -77.8000 TS 60 0 5 105
1963272N09314 1963 93 NA NA FLORA 1963-10-08 03:00:00 TS 21.2001 -77.4448 main 0 0 P_____________ AL071963 21.2001 -77.4448 TS 57 0 8 105
1963272N09314 1963 93 NA NA FLORA 1963-10-08 06:00:00 TS 21.1000 -77.0000 55 hurdat_atl main 0 0 O_____________ hurdat_atl AL071963 21.1000 -77.0000 TS 55 0 8 99
1963272N09314 1963 93 NA NA FLORA 1963-10-08 09:00:00 TS 21.0699 -76.6000 main 0 0 P_____________ AL071963 21.0699 -76.6000 TS 52 0 7 90
1963272N09314 1963 93 NA NA FLORA 1963-10-08 12:00:00 TS 21.1000 -76.2000 50 hurdat_atl main 0 0 O_____________ hurdat_atl AL071963 21.1000 -76.2000 TS 50 0 7 82
1963272N09314 1963 93 NA NA FLORA 1963-10-08 15:00:00 TS 21.1697 -75.8224 main 22 22 P_____________ AL071963 21.1697 -75.8224 TS 57 0 8 75
1963272N09314 1963 93 NA NA FLORA 1963-10-08 18:00:00 TS 21.3000 -75.4000 65 hurdat_atl main 39 39 O_____________ hurdat_atl AL071963 21.3000 -75.4000 HU 65 1 9 71
1963272N09314 1963 93 NA NA FLORA 1963-10-08 21:00:00 TS 21.4698 -74.8948 main 91 91 P_____________ AL071963 21.4698 -74.8948 HU 70 1 11 69
1963272N09314 1963 93 NA NA FLORA 1963-10-09 00:00:00 TS 21.7000 -74.3000 75 983 hurdat_atl main 91 80 O_____________ hurdat_atl AL071963 21.7000 -74.3000 HU 75 983 1 13 68
1963272N09314 1963 93 NA NA FLORA 1963-10-09 03:00:00 TS 21.9551 -73.6146 main 98 91 P_____________ AL071963 21.9551 -73.6146 HU 80 980 1 14 65
1963272N09314 1963 93 NA NA FLORA 1963-10-09 06:00:00 TS 22.3000 -72.9000 85 977 hurdat_atl main 123 123 O_____________ hurdat_atl AL071963 22.3000 -72.9000 HU 85 977 2 15 58
1963272N09314 1963 93 NA NA FLORA 1963-10-09 09:00:00 TS 22.7469 -72.2642 main 182 182 P_____________ AL071963 22.7469 -72.2642 HU 90 971 2 16 50
1963272N09314 1963 93 NA NA FLORA 1963-10-09 12:00:00 TS 23.3000 -71.6000 95 966 hurdat_atl main 275 275 O_____________ hurdat_atl AL071963 23.3000 -71.6000 HU 95 966 2 18 48
1963272N09314 1963 93 NA NA FLORA 1963-10-09 15:00:00 TS 23.9348 -70.8299 main 376 376 P_____________ AL071963 23.9348 -70.8299 HU 95 965 2 20 48
1963272N09314 1963 93 NA NA FLORA 1963-10-09 18:00:00 TS 24.6000 -70.0000 95 965 hurdat_atl main 488 488 O_____________ hurdat_atl AL071963 24.6000 -70.0000 HU 95 965 2 20 50
1963272N09314 1963 93 NA NA FLORA 1963-10-09 21:00:00 TS 25.2145 -69.1642 main 592 592 P_____________ AL071963 25.2145 -69.1642 HU 95 965 2 20 52
1963272N09314 1963 93 NA NA FLORA 1963-10-10 00:00:00 TS 25.8000 -68.3000 95 965 hurdat_atl main 702 702 O_____________ hurdat_atl AL071963 25.8000 -68.3000 HU 95 965 2 20 54
1963272N09314 1963 93 NA NA FLORA 1963-10-10 03:00:00 TS 26.3572 -67.3992 main 805 805 P_____________ AL071963 26.3572 -67.3992 HU 95 966 2 20 56
1963272N09314 1963 93 NA NA FLORA 1963-10-10 06:00:00 TS 26.9000 -66.5000 95 hurdat_atl main 890 890 I_____________ hurdat_atl AL071963 26.9000 -66.5000 L HU 95 967 2 18 56
1963272N09314 1963 93 NA NA FLORA 1963-10-10 09:00:00 TS 27.3883 -65.6913 main 975 975 P_____________ AL071963 27.3883 -65.6913 HU 92 968 2 19 54
1963272N09314 1963 93 NA NA FLORA 1963-10-10 12:00:00 TS 28.0000 -64.8000 90 969 hurdat_atl main 1074 1074 O_____________ hurdat_atl AL071963 28.0000 -64.8000 HU 90 969 2 23 51
1963272N09314 1963 93 NA NA FLORA 1963-10-10 15:00:00 TS 28.8600 -63.6664 main 1189 1189 P_____________ AL071963 28.8600 -63.6664 HU 90 970 2 28 48
1963272N09314 1963 93 NA NA FLORA 1963-10-10 18:00:00 TS 29.9000 -62.4000 90 972 hurdat_atl main 1325 1325 O_____________ hurdat_atl AL071963 29.9000 -62.4000 HU 90 972 2 32 46
1963272N09314 1963 93 NA NA FLORA 1963-10-10 21:00:00 TS 31.0437 -61.0349 main 1435 1354 P_____________ AL071963 31.0437 -61.0349 HU 90 970 2 32 44
1963272N09314 1963 93 NA NA FLORA 1963-10-11 00:00:00 TS 32.2000 -59.8000 90 968 hurdat_atl main 1346 1270 O_____________ hurdat_atl AL071963 32.2000 -59.8000 HU 90 968 2 28 39
1963272N09314 1963 93 NA NA FLORA 1963-10-11 03:00:00 TS 33.2203 -58.9480 main 1273 1203 P_____________ AL071963 33.2203 -58.9480 HU 90 969 2 24 32
1963272N09314 1963 93 NA NA FLORA 1963-10-11 06:00:00 TS 34.2000 -58.3000 90 970 hurdat_atl main 1197 1134 O_____________ hurdat_atl AL071963 34.2000 -58.3000 HU 90 970 2 23 29
1963272N09314 1963 93 NA NA FLORA 1963-10-11 09:00:00 TS 35.2072 -57.6114 main 1134 1066 P_____________ AL071963 35.2072 -57.6114 HU 90 966 2 23 28
1963272N09314 1963 93 NA NA FLORA 1963-10-11 12:00:00 TS 36.2000 -57.0000 90 963 hurdat_atl main 1058 979 O_____________ hurdat_atl AL071963 36.2000 -57.0000 HU 90 963 2 22 25
1963272N09314 1963 93 NA NA FLORA 1963-10-11 15:00:00 TS 37.1719 -56.4756 main 968 895 P_____________ AL071963 37.1719 -56.4756 HU 90 2 21 23
1963272N09314 1963 93 NA NA FLORA 1963-10-11 18:00:00 TS 38.1000 -56.0000 90 hurdat_atl main 895 833 O_____________ hurdat_atl AL071963 38.1000 -56.0000 HU 90 2 20 23
1963272N09314 1963 93 NA NA FLORA 1963-10-11 21:00:00 TS 38.9648 -55.4985 main 828 764 P_____________ AL071963 38.9648 -55.4985 HU 90 2 19 25
1963272N09314 1963 93 NA NA FLORA 1963-10-12 00:00:00 ET 39.8000 -55.0000 90 hurdat_atl main 764 672 O_____________ hurdat_atl AL071963 39.8000 -55.0000 EX 90 -4 18 21
1963272N09314 1963 93 NA NA FLORA 1963-10-12 03:00:00 ET 40.6620 -54.6291 main 660 568 P_____________ AL071963 40.6620 -54.6291 EX 87 -4 19 24
1963272N09314 1963 93 NA NA FLORA 1963-10-12 06:00:00 ET 41.5000 -54.0000 85 hurdat_atl main 567 489 O_____________ hurdat_atl AL071963 41.5000 -54.0000 EX 85 -4 21 41
1963272N09314 1963 93 NA NA FLORA 1963-10-12 09:00:00 ET 42.2645 -52.8005 main 478 427 P_____________ AL071963 42.2645 -52.8005 EX 82 -4 26 54
1963272N09314 1963 93 NA NA FLORA 1963-10-12 12:00:00 ET 43.0000 -51.2000 80 hurdat_atl main 429 421 O_____________ hurdat_atl AL071963 43.0000 -51.2000 EX 80 -4 29 59
1963272N09314 1963 93 NA NA FLORA 1963-10-12 15:00:00 ET 43.7524 -49.3648 main 429 429 P_____________ AL071963 43.7524 -49.3648 EX 77 -4 31 61
1963272N09314 1963 93 NA NA FLORA 1963-10-12 18:00:00 ET 44.5000 -47.5000 75 hurdat_atl main 496 496 O_____________ hurdat_atl AL071963 44.5000 -47.5000 EX 75 -4 29 62
1963272N09314 1963 93 NA NA FLORA 1963-10-12 21:00:00 ET 45.1383 -45.7584 main 584 584 P_____________ AL071963 45.1383 -45.7584 EX 72 -4 26 55
1963272N09314 1963 93 NA NA FLORA 1963-10-13 00:00:00 ET 46.0000 -44.5000 70 hurdat_atl main 636 632 O_____________ hurdat_atl AL071963 46.0000 -44.5000 EX 70 -4 25 28
1963272N09314 1963 93 NA NA FLORA 1963-10-13 03:00:00 ET 47.3091 -44.0852 main 637 634 P_____________ AL071963 47.3091 -44.0852 EX 70 -4 30 6
1963272N09314 1963 93 NA NA FLORA 1963-10-13 06:00:00 ET 49.0000 -44.0000 70 hurdat_atl main 652 652 O_____________ hurdat_atl AL071963 49.0000 -44.0000 EX 70 -4 38 4
1963272N09314 1963 93 NA NA FLORA 1963-10-13 09:00:00 ET 51.1104 -43.6499 main 728 728 P_____________ AL071963 51.1104 -43.6499 EX 70 -4 40 9
1963272N09314 1963 93 NA NA FLORA 1963-10-13 12:00:00 ET 53.0000 -43.0000 70 hurdat_atl main 781 700 O_____________ hurdat_atl AL071963 53.0000 -43.0000 EX 70 -4 30 22
1963272N09314 1963 93 NA NA FLORA 1963-10-13 15:00:00 ET 53.8656 -41.7785 main 691 637 P_____________ AL071963 53.8656 -41.7785 EX 70 -4 21 44
1963272N09314 1963 93 NA NA FLORA 1963-10-13 18:00:00 ET 54.5000 -40.5000 70 hurdat_atl main 639 545 O_____________ hurdat_atl AL071963 54.5000 -40.5000 EX 70 -4 21 35
1963272N09314 1963 93 NA NA FLORA 1963-10-13 21:00:00 ET 55.5975 -39.6978 main 536 425 P_____________ AL071963 55.5975 -39.6978 EX 70 -4 26 19
1963272N09314 1963 93 NA NA FLORA 1963-10-14 00:00:00 ET 57.0000 -39.0000 70 hurdat_atl main 416 316 O_____________ hurdat_atl AL071963 57.0000 -39.0000 EX 70 -4 33 15
1963272N09314 1963 93 NA NA FLORA 1963-10-14 03:00:00 ET 58.7833 -38.1816 main 310 299 P_____________ AL071963 58.7833 -38.1816 EX 67 -4 36 16
1963272N09314 1963 93 NA NA FLORA 1963-10-14 06:00:00 ET 60.5000 -37.0000 65 hurdat_atl main 306 306 O_____________ hurdat_atl AL071963 60.5000 -37.0000 EX 65 -4 32 28
1963272N09314 1963 93 NA NA FLORA 1963-10-14 09:00:00 ET 61.6552 -35.0762 main 351 351 P_____________ AL071963 61.6552 -35.0762 EX 65 -4 27 44
1963272N09314 1963 93 NA NA FLORA 1963-10-14 12:00:00 ET 62.5000 -33.0000 65 hurdat_atl main 397 369 O_____________ hurdat_atl AL071963 62.5000 -33.0000 EX 65 -4 25 48
1963272N09314 1963 93 NA NA FLORA 1963-10-14 15:00:00 ET 63.3248 -31.1285 main 372 304 P_____________ AL071963 63.3248 -31.1285 EX 62 -4 20 42
1963272N09314 1963 93 NA NA FLORA 1963-10-14 18:00:00 ET 64.0000 -30.0000 60 hurdat_atl main 304 279 O_____________ hurdat_atl AL071963 64.0000 -30.0000 EX 60 -4 14 18
1963272N09314 1963 93 NA NA FLORA 1963-10-14 21:00:00 ET 64.6483 -30.1742 main 282 224 P_____________ AL071963 64.6483 -30.1742 EX 57 -4 11 337
1963272N09314 1963 93 NA NA FLORA 1963-10-15 00:00:00 ET 65.0000 -31.0000 55 hurdat_atl main 224 211 O_____________ hurdat_atl AL071963 65.0000 -31.0000 EX 55 -4 6 290
1963272N09314 1963 93 NA NA FLORA 1963-10-15 03:00:00 ET 64.8628 -31.5827 main 212 212 P_____________ AL071963 64.8628 -31.5827 EX 52 -4 7 220
1963272N09314 1963 93 NA NA FLORA 1963-10-15 06:00:00 ET 64.5000 -32.0000 50 hurdat_atl main 236 236 O_____________ hurdat_atl AL071963 64.5000 -32.0000 EX 50 -4 7 198
1963272N09314 1963 93 NA NA FLORA 1963-10-15 09:00:00 ET 64.2272 -32.0729 main 263 263 P_____________ AL071963 64.2272 -32.0729 EX 47 -4 5 178
1963272N09314 1963 93 NA NA FLORA 1963-10-15 12:00:00 ET 64.0000 -32.0000 45 hurdat_atl main 284 284 O_____________ hurdat_atl AL071963 64.0000 -32.0000 EX 45 -4 3 0
1963272N09314 1963 93 NA NA FLORA 1963-10-15 15:00:00 ET 63.8774 -32.0379 main 292 292 P_____________ AL071963 63.8774 -32.0379 EX 42 -4 2 172
1963272N09314 1963 93 NA NA FLORA 1963-10-15 18:00:00 ET 63.8000 -32.0000 40 hurdat_atl main 301 301 O_____________ hurdat_atl AL071963 63.8000 -32.0000 EX 40 -4 2 146
1963272N09314 1963 93 NA NA FLORA 1963-10-15 21:00:00 ET 63.6927 -31.7493 main 319 319 P_____________ AL071963 63.6927 -31.7493 EX 37 -4 3 132
1963272N09314 1963 93 NA NA FLORA 1963-10-16 00:00:00 ET 63.6000 -31.5000 35 hurdat_atl main 333 333 O_____________ hurdat_atl AL071963 63.6000 -31.5000 EX 35 -4 2 139
1963272N09314 1963 93 NA NA FLORA 1963-10-16 03:00:00 ET 63.5499 -31.4628 main 342 342 P_____________ AL071963 63.5499 -31.4628 EX 35 -4 1 0
1963272N09314 1963 93 NA NA FLORA 1963-10-16 06:00:00 ET 63.5000 -31.5000 35 hurdat_atl main 342 342 O_____________ hurdat_atl AL071963 63.5000 -31.5000 EX 35 -4 1 183
1963272N09314 1963 93 NA NA FLORA 1963-10-16 09:00:00 ET 63.4075 -31.5000 main 351 351 P_____________ AL071963 63.4075 -31.5000 EX 35 -4 2 172
1963272N09314 1963 93 NA NA FLORA 1963-10-16 12:00:00 ET 63.3000 -31.5000 35 hurdat_atl main 360 360 O_____________ hurdat_atl AL071963 63.3000 -31.5000 EX 35 -4 2 168
1963272N09314 1963 93 NA NA FLORA 1963-10-16 15:00:00 ET 63.1922 -31.4245 main 372 372 P_____________ AL071963 63.1922 -31.4245 EX 35 -4 2 172
1963272N09314 1963 93 NA NA FLORA 1963-10-16 18:00:00 ET 63.1000 -31.5000 35 hurdat_atl main 378 368 O_____________ hurdat_atl AL071963 63.1000 -31.5000 EX 35 -4 3 238
1963272N09314 1963 93 NA NA FLORA 1963-10-16 21:00:00 ET 63.0503 -31.9247 main 368 363 P_____________ AL071963 63.0503 -31.9247 EX 35 -4 5 258
1963272N09314 1963 93 NA NA FLORA 1963-10-17 00:00:00 ET 63.0000 -32.5000 35 hurdat_atl main 363 356 O_____________ hurdat_atl AL071963 63.0000 -32.5000 EX 35 -4 5 254
1963272N09314 1963 93 NA NA FLORA 1963-10-17 03:00:00 ET 62.9073 -33.0000 main 363 357 P_____________ AL071963 62.9073 -33.0000 EX 35 -4 5 246
1963272N09314 1963 93 NA NA FLORA 1963-10-17 06:00:00 ET 62.8000 -33.5000 35 hurdat_atl main 361 337 O_____________ hurdat_atl AL071963 62.8000 -33.5000 EX 35 -4 6 246
1963272N09314 1963 93 NA NA FLORA 1963-10-17 09:00:00 ET 62.6703 -34.1505 main 332 322 P_____________ AL071963 62.6703 -34.1505 EX 35 -4 5 247
1963272N09314 1963 93 NA NA FLORA 1963-10-17 12:00:00 ET 62.6000 -34.5000 35 hurdat_atl main 322 322 O_____________ hurdat_atl AL071963 62.6000 -34.5000 EX 35 -4 0 0
1963272N09314 1963 93 NA NA FLORA 1963-10-17 15:00:00 ET 62.6609 -34.2018 main 332 332 P_____________ AL071963 62.6609 -34.2018 EX 32 -4 5 67
1963272N09314 1963 93 NA NA FLORA 1963-10-17 18:00:00 ET 62.8000 -33.5000 30 hurdat_atl main 361 O_____________ hurdat_atl AL071963 62.8000 -33.5000 EX 30 -4 7 67

IBTrACS Databaseについて

本データベースは、米国NOAAが公開する1842年以降の世界の熱帯低気圧のベストトラックデータアーカイブInternational Best Track Archive for Climate Stewardship (IBTrACS)を、ウェブで閲覧しやすい形式に変換したものです。

最終更新日:2021-11-26